Airport View

Enter AWOS ICAO identifier for current METAR.

ex. KFNL

CYQH 212300Z 34006KT 260V360 30SM BKN050 OVC069 15/08 A2935 RMK SC5AC3 SLP949 DENSITY ALT 3500FT

21 Sep 2019 23:24

Other Area AWOS: CWZV

TAF CYQH 211738Z 2118/2206 VRB03KT P6SM SCT070 BKN120 TEMPO 2118/2206 P6SM -SHRA BKN060 PROB30 2121/2202 VRB15G25KT 5SM TSRA BKN050CB RMK NXT FCST BY 220000Z